createdAt,value
2023-03-31T00:01:29.120Z,19.65
2023-03-31T00:04:06.335Z,13.55
2023-03-31T00:06:38.355Z,15.00
2023-03-31T00:09:19.000Z,23.75
2023-03-31T00:11:50.450Z,17.77
2023-03-31T00:14:40.562Z,18.48
2023-03-31T00:17:10.681Z,18.80
2023-03-31T00:19:40.252Z,23.80
2023-03-31T00:22:07.696Z,14.95
2023-03-31T00:24:35.852Z,17.52
2023-03-31T00:27:05.017Z,10.07
2023-03-31T00:29:33.712Z,18.05
2023-03-31T00:32:00.780Z,20.88
2023-03-31T00:34:28.689Z,14.77
2023-03-31T00:37:02.898Z,13.73
2023-03-31T00:39:35.146Z,15.77
2023-03-31T00:42:03.844Z,15.65
2023-03-31T00:44:34.337Z,26.55
2023-03-31T00:47:21.057Z,25.80
2023-03-31T00:49:54.951Z,20.10
2023-03-31T00:52:31.017Z,16.27
2023-03-31T00:55:10.932Z,24.23
2023-03-31T00:57:41.341Z,25.60
2023-03-31T01:00:15.517Z,19.90
2023-03-31T01:02:54.305Z,17.60
2023-03-31T01:05:25.957Z,21.63
2023-03-31T01:07:54.619Z,14.97
2023-03-31T01:10:22.635Z,19.38
2023-03-31T01:12:54.173Z,18.60
2023-03-31T01:15:22.610Z,18.33
2023-03-31T01:17:52.183Z,22.50
2023-03-31T01:20:36.183Z,21.50
2023-03-31T01:23:26.512Z,13.07
2023-03-31T01:25:56.389Z,20.05
2023-03-31T01:29:01.840Z,14.55
2023-03-31T01:31:48.131Z,14.20
2023-03-31T01:34:40.111Z,14.18
2023-03-31T01:37:16.387Z,9.97
2023-03-31T01:40:26.015Z,17.30
2023-03-31T01:43:14.278Z,16.73
2023-03-31T01:46:06.949Z,11.73
2023-03-31T01:48:37.066Z,11.80
2023-03-31T01:51:15.813Z,14.65
2023-03-31T01:53:57.443Z,15.00
2023-03-31T01:56:30.954Z,14.20
2023-03-31T01:59:35.526Z,13.30
2023-03-31T02:02:17.653Z,11.95
2023-03-31T02:04:59.224Z,15.85
2023-03-31T02:07:35.499Z,12.13
2023-03-31T02:10:07.283Z,13.98
2023-03-31T02:15:09.420Z,10.15
2023-03-31T02:17:40.255Z,14.05
2023-03-31T02:20:12.723Z,11.23
2023-03-31T02:22:45.482Z,12.50
2023-03-31T02:25:15.694Z,11.50
2023-03-31T02:27:45.832Z,8.85
2023-03-31T02:30:14.749Z,12.40
2023-03-31T02:32:44.708Z,12.45
2023-03-31T02:35:17.795Z,13.57
2023-03-31T02:37:46.496Z,9.15
2023-03-31T02:40:23.277Z,16.60
2023-03-31T02:42:51.469Z,10.55
2023-03-31T02:45:44.381Z,10.55
2023-03-31T02:48:47.635Z,11.90
2023-03-31T02:51:36.917Z,13.48
2023-03-31T02:54:34.890Z,11.15
2023-03-31T02:57:27.199Z,13.35
2023-03-31T03:00:10.584Z,18.42
2023-03-31T03:03:02.698Z,5.93
2023-03-31T03:05:39.800Z,14.93
2023-03-31T03:08:55.519Z,9.20
2023-03-31T03:11:36.861Z,17.83
2023-03-31T03:14:28.703Z,10.85
2023-03-31T03:17:11.437Z,12.82
2023-03-31T03:19:38.481Z,14.95
2023-03-31T03:22:08.742Z,17.02
2023-03-31T03:24:36.403Z,18.23
2023-03-31T03:27:03.426Z,13.73
2023-03-31T03:29:30.872Z,12.57
2023-03-31T03:31:57.961Z,15.63
2023-03-31T03:34:26.990Z,16.92
2023-03-31T03:36:55.038Z,17.33
2023-03-31T03:39:23.896Z,15.68
2023-03-31T03:41:52.089Z,11.43
2023-03-31T03:44:22.068Z,9.85
2023-03-31T03:46:49.333Z,6.38
2023-03-31T03:49:27.541Z,4.65
2023-03-31T03:51:54.552Z,7.88
2023-03-31T03:54:24.906Z,3.97
2023-03-31T03:56:53.039Z,3.88
2023-03-31T03:59:20.052Z,1.52
2023-03-31T04:01:47.184Z,5.53
2023-03-31T04:04:14.525Z,2.45
2023-03-31T04:06:41.488Z,2.33
2023-03-31T04:09:08.433Z,3.40
2023-03-31T04:11:35.805Z,4.70
2023-03-31T04:14:03.956Z,4.47
2023-03-31T04:16:34.620Z,6.70
2023-03-31T04:19:04.607Z,6.53
2023-03-31T04:21:34.909Z,8.20
2023-03-31T04:24:05.485Z,5.05
2023-03-31T04:26:44.074Z,5.93
2023-03-31T04:29:13.317Z,10.82
2023-03-31T04:31:43.054Z,14.95
2023-03-31T04:34:14.649Z,13.52
2023-03-31T04:36:49.373Z,17.92
2023-03-31T04:39:26.976Z,10.43
2023-03-31T04:41:59.172Z,14.48
2023-03-31T04:44:30.048Z,11.10
2023-03-31T04:46:58.847Z,16.33
2023-03-31T04:49:25.852Z,15.73
2023-03-31T04:51:54.604Z,9.65
2023-03-31T04:54:21.612Z,16.42
2023-03-31T04:56:48.740Z,12.82
2023-03-31T04:59:17.032Z,12.18
2023-03-31T05:01:45.345Z,16.27
2023-03-31T05:04:13.978Z,14.18
2023-03-31T05:06:41.630Z,18.40
2023-03-31T05:09:09.902Z,11.00
2023-03-31T05:11:38.368Z,16.25
2023-03-31T05:14:05.802Z,18.92
2023-03-31T05:16:34.692Z,17.70
2023-03-31T05:19:04.276Z,24.02
2023-03-31T05:21:32.499Z,15.20
2023-03-31T05:24:00.974Z,16.52
2023-03-31T05:26:28.696Z,15.60
2023-03-31T05:28:57.592Z,18.95
2023-03-31T05:31:24.633Z,15.73
2023-03-31T05:33:51.930Z,14.73
2023-03-31T05:36:19.120Z,10.98
2023-03-31T05:38:47.747Z,13.68
2023-03-31T05:41:17.112Z,21.92
2023-03-31T05:43:44.173Z,10.25
2023-03-31T05:46:11.752Z,16.77
2023-03-31T05:48:41.387Z,17.75
2023-03-31T05:51:08.508Z,9.93
2023-03-31T05:53:36.147Z,17.55
2023-03-31T05:56:06.947Z,19.77
2023-03-31T05:58:39.109Z,17.88
2023-03-31T06:01:20.576Z,16.73
2023-03-31T06:03:50.050Z,19.20
2023-03-31T06:06:18.608Z,23.63
2023-03-31T06:08:47.546Z,8.98
2023-03-31T06:11:17.327Z,15.27
2023-03-31T06:13:47.964Z,22.42
2023-03-31T06:16:17.181Z,18.75
2023-03-31T06:18:45.074Z,19.00
2023-03-31T06:21:14.672Z,20.23
2023-03-31T06:23:45.500Z,24.85
2023-03-31T06:26:15.406Z,21.23
2023-03-31T06:28:42.866Z,18.70
2023-03-31T06:31:13.168Z,25.08
2023-03-31T06:33:41.899Z,15.82
2023-03-31T06:36:10.718Z,22.02
2023-03-31T06:38:40.175Z,18.75
2023-03-31T06:41:09.577Z,13.52
2023-03-31T06:43:37.635Z,17.88
2023-03-31T06:46:06.247Z,23.77
2023-03-31T06:48:33.804Z,20.55
2023-03-31T06:51:05.423Z,19.23
2023-03-31T06:53:33.626Z,23.13
2023-03-31T06:56:02.859Z,19.58
2023-03-31T06:58:31.575Z,23.10
2023-03-31T07:01:02.112Z,23.85
2023-03-31T07:03:30.904Z,21.75
2023-03-31T07:05:58.121Z,22.73
2023-03-31T07:08:26.411Z,15.45
2023-03-31T07:11:00.418Z,23.92
2023-03-31T07:13:28.327Z,25.40
2023-03-31T07:15:58.404Z,28.58
2023-03-31T07:18:34.281Z,23.42
2023-03-31T07:21:05.762Z,16.58
2023-03-31T07:23:35.676Z,18.52
2023-03-31T07:26:03.851Z,26.35
2023-03-31T07:28:31.165Z,19.45
2023-03-31T07:30:58.591Z,19.67
2023-03-31T07:33:26.164Z,21.73
2023-03-31T07:36:03.963Z,20.90
2023-03-31T07:38:40.428Z,21.27
2023-03-31T07:41:12.144Z,21.45
2023-03-31T07:43:39.870Z,26.77
2023-03-31T07:46:13.529Z,24.73
2023-03-31T07:48:42.165Z,19.30
2023-03-31T07:51:10.361Z,27.15
2023-03-31T07:53:38.616Z,25.70
2023-03-31T07:56:05.911Z,14.15
2023-03-31T07:58:33.212Z,24.88
2023-03-31T08:01:01.108Z,27.08
2023-03-31T08:03:28.348Z,26.33
2023-03-31T08:05:55.397Z,21.23
2023-03-31T08:08:22.755Z,28.40
2023-03-31T08:10:51.040Z,26.00
2023-03-31T08:13:18.102Z,26.45
2023-03-31T08:15:45.099Z,29.25
2023-03-31T08:18:12.223Z,21.10
2023-03-31T08:20:39.487Z,20.02
2023-03-31T08:23:11.606Z,24.70
2023-03-31T08:25:39.684Z,27.05
2023-03-31T08:28:10.840Z,14.70
2023-03-31T08:30:39.043Z,19.02
2023-03-31T08:33:12.453Z,16.33
2023-03-31T08:35:41.975Z,24.40
2023-03-31T08:38:09.182Z,18.13
2023-03-31T08:40:45.113Z,19.23
2023-03-31T08:43:23.073Z,21.85
2023-03-31T08:45:50.695Z,20.35
2023-03-31T08:48:38.770Z,23.27
2023-03-31T08:51:14.644Z,22.08
2023-03-31T08:53:56.295Z,22.02
2023-03-31T08:56:24.477Z,16.25
2023-03-31T08:58:52.351Z,17.27
2023-03-31T09:01:52.165Z,21.50
2023-03-31T09:04:53.043Z,23.33
2023-03-31T09:07:25.113Z,19.40
2023-03-31T09:09:55.177Z,7.32
2023-03-31T09:12:35.111Z,25.77
2023-03-31T09:15:10.980Z,18.58
2023-03-31T09:17:45.919Z,26.73
2023-03-31T09:20:19.915Z,26.38
2023-03-31T09:22:55.981Z,29.95
2023-03-31T09:25:34.606Z,19.88
2023-03-31T09:28:09.223Z,27.17
2023-03-31T09:30:38.435Z,12.13
2023-03-31T09:33:18.418Z,22.50
2023-03-31T09:35:46.887Z,22.45
2023-03-31T09:38:15.904Z,12.63
2023-03-31T09:40:43.431Z,20.30
2023-03-31T09:43:24.539Z,25.95
2023-03-31T09:46:08.550Z,24.52
2023-03-31T09:48:42.414Z,15.88
2023-03-31T09:51:18.300Z,36.47
2023-03-31T09:53:58.552Z,26.77
2023-03-31T09:56:43.681Z,32.92
2023-03-31T09:59:22.628Z,29.27
2023-03-31T10:01:57.142Z,20.15
2023-03-31T10:04:26.389Z,31.33
2023-03-31T10:06:55.927Z,28.42
2023-03-31T10:09:28.570Z,27.67
2023-03-31T10:14:28.174Z,28.00
2023-03-31T10:16:57.825Z,21.70
2023-03-31T10:19:31.855Z,21.92
2023-03-31T10:22:01.190Z,28.88
2023-03-31T10:24:42.945Z,31.30
2023-03-31T10:27:22.895Z,23.88
2023-03-31T10:29:59.493Z,14.52
2023-03-31T10:32:33.778Z,17.92
2023-03-31T10:35:22.095Z,30.80
2023-03-31T10:37:55.990Z,19.98
2023-03-31T10:40:26.743Z,23.40
2023-03-31T10:43:11.363Z,18.08
2023-03-31T10:45:51.248Z,21.17
2023-03-31T10:48:32.758Z,23.15
2023-03-31T10:51:21.362Z,24.73
2023-03-31T10:53:50.462Z,24.05
2023-03-31T10:56:42.022Z,22.80
2023-03-31T10:59:41.667Z,18.67
2023-03-31T11:02:28.266Z,12.13
2023-03-31T11:05:13.213Z,30.90
2023-03-31T11:07:59.182Z,24.55
2023-03-31T11:10:45.394Z,28.45
2023-03-31T11:13:43.194Z,33.50
2023-03-31T11:16:50.041Z,36.08
2023-03-31T11:19:19.987Z,25.77
2023-03-31T11:22:12.131Z,24.02
2023-03-31T11:25:00.399Z,25.03
2023-03-31T11:27:54.692Z,22.05
2023-03-31T11:30:43.167Z,15.93
2023-03-31T11:33:28.354Z,16.88
2023-03-31T11:36:07.407Z,16.58
2023-03-31T11:39:02.282Z,18.23
2023-03-31T11:41:39.193Z,19.90
2023-03-31T11:44:11.711Z,14.70
2023-03-31T11:47:02.809Z,20.85
2023-03-31T11:49:39.228Z,19.75
2023-03-31T11:52:18.966Z,19.52
2023-03-31T11:55:18.153Z,17.10
2023-03-31T11:58:16.551Z,15.63
2023-03-31T12:01:18.606Z,16.63
2023-03-31T12:04:05.040Z,16.10
2023-03-31T12:06:41.010Z,12.05
2023-03-31T12:09:27.377Z,20.10
2023-03-31T12:12:00.985Z,17.02
2023-03-31T12:14:42.978Z,21.83
2023-03-31T12:17:16.244Z,15.83
2023-03-31T12:20:00.587Z,18.67
2023-03-31T12:22:36.344Z,15.40
2023-03-31T12:25:16.926Z,9.50
2023-03-31T12:27:49.822Z,15.27
2023-03-31T12:30:42.339Z,12.05
2023-03-31T12:37:18.954Z,12.63
2023-03-31T12:40:17.156Z,9.82
2023-03-31T12:44:03.180Z,6.78
2023-03-31T12:47:15.147Z,14.02
2023-03-31T12:50:20.055Z,9.55
2023-03-31T12:53:20.263Z,9.23
2023-03-31T12:55:52.263Z,14.43
2023-03-31T12:58:23.148Z,7.57
2023-03-31T13:01:11.828Z,7.18
2023-03-31T13:04:02.208Z,4.57
2023-03-31T13:06:29.208Z,7.82
2023-03-31T13:08:57.234Z,5.65
2023-03-31T13:11:48.210Z,8.27
2023-03-31T13:14:18.231Z,4.25
2023-03-31T13:16:46.308Z,5.78
2023-03-31T13:19:34.864Z,2.78
2023-03-31T13:22:06.258Z,5.65
2023-03-31T13:24:36.284Z,6.70
2023-03-31T13:27:33.693Z,4.88
2023-03-31T13:30:01.044Z,5.82
2023-03-31T13:32:29.023Z,6.38
2023-03-31T13:35:29.938Z,2.85
2023-03-31T13:38:31.440Z,5.85
2023-03-31T13:41:03.661Z,2.92
2023-03-31T13:44:06.402Z,7.47
2023-03-31T13:51:07.691Z,4.03
2023-03-31T13:53:59.923Z,4.30
2023-03-31T14:01:37.879Z,2.08
2023-03-31T14:04:40.730Z,3.55
2023-03-31T14:07:23.174Z,3.47
2023-03-31T14:09:54.113Z,2.78
2023-03-31T14:12:35.846Z,4.88
2023-03-31T14:15:06.692Z,2.53
2023-03-31T14:17:40.976Z,6.13
2023-03-31T14:20:12.613Z,6.00
2023-03-31T14:22:47.114Z,3.77
2023-03-31T14:25:56.392Z,4.15
2023-03-31T14:28:48.106Z,1.58
2023-03-31T14:31:21.481Z,1.70
2023-03-31T14:34:05.000Z,2.90
2023-03-31T14:36:58.153Z,5.47
2023-03-31T14:39:31.622Z,3.45
2023-03-31T14:42:22.600Z,3.97
2023-03-31T14:44:56.480Z,3.55
2023-03-31T14:47:33.873Z,3.42
2023-03-31T14:50:18.795Z,4.35
2023-03-31T14:52:52.313Z,2.17
2023-03-31T14:55:58.593Z,8.55
2023-03-31T14:58:36.269Z,3.33
2023-03-31T15:01:07.989Z,5.55
2023-03-31T15:03:41.924Z,2.50
2023-03-31T15:06:15.793Z,3.80
2023-03-31T15:08:43.336Z,3.47
2023-03-31T15:11:22.261Z,2.88
2023-03-31T15:14:03.582Z,4.80
2023-03-31T15:16:43.333Z,2.70
2023-03-31T15:19:33.591Z,5.95
2023-03-31T15:22:19.275Z,1.50
2023-03-31T15:24:48.059Z,4.30
2023-03-31T15:27:35.870Z,5.57
2023-03-31T15:30:06.981Z,2.15
2023-03-31T15:32:39.510Z,3.72
2023-03-31T15:35:32.474Z,6.07
2023-03-31T15:38:01.266Z,5.15
2023-03-31T15:40:31.975Z,4.40
2023-03-31T15:43:20.212Z,7.30
2023-03-31T15:45:56.620Z,3.42
2023-03-31T15:48:35.799Z,5.78
2023-03-31T15:51:13.988Z,7.53
2023-03-31T15:53:47.312Z,6.38
2023-03-31T15:56:27.195Z,4.47
2023-03-31T15:58:59.912Z,7.55
2023-03-31T16:01:33.055Z,7.78
2023-03-31T16:04:08.955Z,6.93
2023-03-31T16:06:52.630Z,5.30
2023-03-31T16:09:28.051Z,8.15
2023-03-31T16:12:02.597Z,8.77
2023-03-31T16:15:02.663Z,7.07
2023-03-31T16:17:52.933Z,10.65
2023-03-31T16:20:37.758Z,9.93
2023-03-31T16:23:16.104Z,7.50
2023-03-31T16:25:49.582Z,10.20
2023-03-31T16:28:25.942Z,5.80
2023-03-31T16:30:55.358Z,6.70
2023-03-31T16:33:25.497Z,8.85
2023-03-31T16:35:59.106Z,9.90
2023-03-31T16:38:29.451Z,9.15
2023-03-31T16:40:59.199Z,6.68
2023-03-31T16:43:32.572Z,8.93
2023-03-31T16:46:04.443Z,6.85
2023-03-31T16:48:35.418Z,12.87
2023-03-31T16:51:04.686Z,8.40
2023-03-31T16:53:36.162Z,6.88
2023-03-31T16:56:09.800Z,5.88
2023-03-31T16:58:38.643Z,4.97
2023-03-31T17:01:10.482Z,11.10
2023-03-31T17:03:42.011Z,8.48
2023-03-31T17:06:13.354Z,8.40
2023-03-31T17:08:41.064Z,8.90
2023-03-31T17:11:12.826Z,6.63
2023-03-31T17:13:41.998Z,7.10
2023-03-31T17:16:19.060Z,13.90
2023-03-31T17:18:53.256Z,9.35
2023-03-31T17:21:24.374Z,11.40
2023-03-31T17:23:53.557Z,8.98
2023-03-31T17:26:22.526Z,12.77
2023-03-31T17:28:49.675Z,5.78
2023-03-31T17:31:19.584Z,18.35
2023-03-31T17:33:47.688Z,12.73
2023-03-31T17:36:16.806Z,14.82
2023-03-31T17:38:44.598Z,9.35
2023-03-31T17:41:13.250Z,12.80
2023-03-31T17:43:43.967Z,16.60
2023-03-31T17:46:12.845Z,12.63
2023-03-31T17:48:41.623Z,14.80
2023-03-31T17:51:15.153Z,15.00
2023-03-31T17:53:45.172Z,16.15
2023-03-31T17:56:16.078Z,25.30
2023-03-31T17:58:43.354Z,15.93
2023-03-31T18:01:12.014Z,18.13
2023-03-31T18:03:39.434Z,25.02
2023-03-31T18:06:11.579Z,28.25
2023-03-31T18:08:40.399Z,10.85
2023-03-31T18:11:09.267Z,21.08
2023-03-31T18:13:37.393Z,18.15
2023-03-31T18:16:05.872Z,22.80
2023-03-31T18:18:33.594Z,18.60
2023-03-31T18:21:06.253Z,18.58
2023-03-31T18:23:40.586Z,21.65
2023-03-31T18:26:13.220Z,17.58
2023-03-31T18:29:12.650Z,20.90
2023-03-31T18:32:07.415Z,22.45
2023-03-31T18:34:36.792Z,25.40
2023-03-31T18:37:05.491Z,20.45
2023-03-31T18:39:33.174Z,16.45
2023-03-31T18:42:01.591Z,23.88
2023-03-31T18:44:28.634Z,23.30
2023-03-31T18:46:55.679Z,22.65
2023-03-31T18:49:27.245Z,27.65
2023-03-31T18:51:54.191Z,27.35
2023-03-31T18:54:22.929Z,28.38
2023-03-31T18:56:50.221Z,22.20
2023-03-31T18:59:17.814Z,23.75
2023-03-31T19:01:45.036Z,19.48
2023-03-31T19:04:12.381Z,19.23
2023-03-31T19:06:40.766Z,21.63
2023-03-31T19:09:08.815Z,16.42
2023-03-31T19:11:37.796Z,18.17
2023-03-31T19:14:07.703Z,26.70
2023-03-31T19:16:41.675Z,23.80
2023-03-31T19:19:09.126Z,15.32
2023-03-31T19:21:37.408Z,18.15
2023-03-31T19:24:06.534Z,21.73
2023-03-31T19:26:34.139Z,18.27
2023-03-31T19:29:03.655Z,20.65
2023-03-31T19:31:34.138Z,17.55
2023-03-31T19:34:09.062Z,20.90
2023-03-31T19:36:37.388Z,28.83
2023-03-31T19:39:09.171Z,25.67
2023-03-31T19:41:36.759Z,8.18
2023-03-31T19:44:05.467Z,26.05
2023-03-31T19:46:32.637Z,20.40
2023-03-31T19:49:00.052Z,19.60
2023-03-31T19:51:32.568Z,17.88
2023-03-31T19:56:28.450Z,23.75
2023-03-31T19:58:56.293Z,16.45
2023-03-31T20:01:34.838Z,20.25
2023-03-31T20:04:05.195Z,16.50
2023-03-31T20:06:35.586Z,21.70
2023-03-31T20:09:08.968Z,21.23
2023-03-31T20:11:37.976Z,24.48
2023-03-31T20:14:11.590Z,22.23
2023-03-31T20:17:01.224Z,18.08
2023-03-31T20:20:40.909Z,25.55
2023-03-31T20:23:34.450Z,12.30
2023-03-31T20:26:07.147Z,11.75
2023-03-31T20:28:39.268Z,13.38
2023-03-31T20:31:21.763Z,17.45
2023-03-31T20:33:49.355Z,17.52
2023-03-31T20:40:47.079Z,14.77
2023-03-31T20:43:14.200Z,17.80
2023-03-31T20:45:41.365Z,14.73
2023-03-31T20:48:08.860Z,14.23
2023-03-31T20:50:39.408Z,15.60
2023-03-31T20:53:07.236Z,18.08
2023-03-31T20:55:35.340Z,21.95
2023-03-31T20:58:05.634Z,19.67
2023-03-31T21:00:41.164Z,19.00
2023-03-31T21:05:46.586Z,10.57
2023-03-31T21:08:13.892Z,14.52
2023-03-31T21:10:48.482Z,21.48
2023-03-31T21:13:16.775Z,19.33
2023-03-31T21:15:50.801Z,17.75
2023-03-31T21:18:18.157Z,16.90
2023-03-31T21:20:56.583Z,16.10
2023-03-31T21:23:27.403Z,15.82
2023-03-31T21:25:59.719Z,21.73
2023-03-31T21:28:33.716Z,14.30
2023-03-31T21:31:16.139Z,18.02
2023-03-31T21:34:03.554Z,19.17
2023-03-31T21:36:35.857Z,18.15
2023-03-31T21:39:05.508Z,10.35
2023-03-31T21:41:34.849Z,16.75
2023-03-31T21:44:03.209Z,23.20
2023-03-31T21:46:34.174Z,14.82
2023-03-31T21:49:02.668Z,17.95
2023-03-31T21:51:29.936Z,17.48
2023-03-31T21:53:58.426Z,12.70
2023-03-31T21:56:31.642Z,17.25
2023-03-31T21:59:01.321Z,22.52
2023-03-31T22:01:29.904Z,21.05
2023-03-31T22:03:57.289Z,25.10
2023-03-31T22:06:24.289Z,18.67
2023-03-31T22:08:51.573Z,21.40
2023-03-31T22:11:18.934Z,13.35
2023-03-31T22:13:46.395Z,14.95
2023-03-31T22:16:17.468Z,14.88
2023-03-31T22:18:45.839Z,30.15
2023-03-31T22:21:21.300Z,18.80
2023-03-31T22:23:51.802Z,15.75
2023-03-31T22:26:19.179Z,17.90
2023-03-31T22:28:46.238Z,17.60
2023-03-31T22:31:13.278Z,11.23
2023-03-31T22:33:41.549Z,14.75
2023-03-31T22:36:09.814Z,12.13
2023-03-31T22:38:39.985Z,15.07
2023-03-31T22:41:08.345Z,6.53
2023-03-31T22:43:36.548Z,12.55
2023-03-31T22:46:06.197Z,12.98
2023-03-31T22:48:33.977Z,15.30
2023-03-31T22:51:15.380Z,8.60
2023-03-31T22:53:42.390Z,15.45
2023-03-31T22:56:12.188Z,15.30
2023-03-31T22:58:39.508Z,16.17
2023-03-31T23:01:10.127Z,19.63
2023-03-31T23:03:37.726Z,20.83
2023-03-31T23:06:10.561Z,17.02
2023-03-31T23:08:39.502Z,17.88
2023-03-31T23:11:09.253Z,21.27
2023-03-31T23:13:39.030Z,19.08
2023-03-31T23:16:10.159Z,17.60
2023-03-31T23:18:44.513Z,14.18
2023-03-31T23:21:21.687Z,18.50
2023-03-31T23:26:48.171Z,15.38
2023-03-31T23:29:17.321Z,11.00
2023-03-31T23:31:48.448Z,7.72
2023-03-31T23:34:15.906Z,10.73
2023-03-31T23:36:44.039Z,12.43
2023-03-31T23:39:11.175Z,12.98
2023-03-31T23:41:48.070Z,9.57
2023-03-31T23:44:15.537Z,14.15
2023-03-31T23:46:44.938Z,16.48
2023-03-31T23:49:12.298Z,14.13
2023-03-31T23:51:39.297Z,14.80
2023-03-31T23:54:06.275Z,9.50
2023-03-31T23:56:34.523Z,8.82
2023-03-31T23:59:03.296Z,15.02
